createdAt,value
2018-10-03T00:01:08.508Z,16.00
2018-10-03T00:03:36.888Z,16.00
2018-10-03T00:06:05.102Z,16.00
2018-10-03T00:08:36.647Z,16.00
2018-10-03T00:11:05.057Z,16.00
2018-10-03T00:13:33.302Z,16.00
2018-10-03T00:16:01.550Z,16.00
2018-10-03T00:18:29.794Z,15.90
2018-10-03T00:20:58.026Z,15.90
2018-10-03T00:23:26.324Z,15.90
2018-10-03T00:25:54.451Z,15.90
2018-10-03T00:28:22.685Z,15.90
2018-10-03T00:30:51.167Z,16.00
2018-10-03T00:33:19.421Z,15.90
2018-10-03T00:35:47.698Z,15.90
2018-10-03T00:38:16.076Z,15.90
2018-10-03T00:40:44.494Z,15.90
2018-10-03T00:43:12.725Z,15.90
2018-10-03T00:45:41.049Z,15.90
2018-10-03T00:48:09.764Z,15.90
2018-10-03T00:50:38.349Z,15.90
2018-10-03T00:53:06.776Z,15.90
2018-10-03T00:55:35.509Z,16.00
2018-10-03T00:58:03.796Z,16.00
2018-10-03T01:00:32.055Z,16.00
2018-10-03T01:03:00.329Z,16.00
2018-10-03T01:05:28.554Z,16.00
2018-10-03T01:07:56.794Z,15.90
2018-10-03T01:10:25.059Z,15.90
2018-10-03T01:12:53.315Z,15.90
2018-10-03T01:15:21.666Z,15.90
2018-10-03T01:17:51.051Z,15.90
2018-10-03T01:20:19.317Z,16.00
2018-10-03T01:22:47.579Z,15.90
2018-10-03T01:25:15.810Z,15.90
2018-10-03T01:27:44.117Z,15.90
2018-10-03T01:30:12.378Z,15.90
2018-10-03T01:32:40.782Z,15.90
2018-10-03T01:35:09.042Z,15.90
2018-10-03T01:37:37.280Z,15.90
2018-10-03T01:40:05.507Z,15.90
2018-10-03T01:42:33.830Z,15.90
2018-10-03T01:45:02.064Z,15.90
2018-10-03T01:47:30.274Z,15.90
2018-10-03T01:49:58.506Z,15.90
2018-10-03T01:52:26.725Z,15.90
2018-10-03T01:54:54.945Z,15.90
2018-10-03T01:57:23.161Z,15.90
2018-10-03T01:59:51.492Z,15.90
2018-10-03T02:02:19.739Z,15.80
2018-10-03T02:04:47.994Z,15.80
2018-10-03T02:07:16.291Z,15.80
2018-10-03T02:09:44.607Z,15.70
2018-10-03T02:12:12.882Z,15.70
2018-10-03T02:14:42.181Z,15.70
2018-10-03T02:17:10.330Z,15.70
2018-10-03T02:19:38.589Z,15.70
2018-10-03T02:22:06.842Z,15.60
2018-10-03T02:24:35.142Z,15.60
2018-10-03T02:27:03.518Z,15.60
2018-10-03T02:29:31.799Z,15.60
2018-10-03T02:32:00.027Z,15.60
2018-10-03T02:34:28.277Z,15.60
2018-10-03T02:36:56.508Z,15.60
2018-10-03T02:39:24.754Z,15.60
2018-10-03T02:41:53.025Z,15.60
2018-10-03T02:44:21.862Z,15.50
2018-10-03T02:46:52.579Z,15.50
2018-10-03T02:49:21.188Z,15.50
2018-10-03T02:51:50.188Z,15.50
2018-10-03T02:54:18.450Z,15.50
2018-10-03T02:56:46.686Z,15.40
2018-10-03T02:59:14.922Z,15.40
2018-10-03T03:01:44.102Z,15.40
2018-10-03T03:04:12.334Z,15.40
2018-10-03T03:06:40.545Z,15.50
2018-10-03T03:09:11.218Z,15.50
2018-10-03T03:11:39.493Z,15.60
2018-10-03T03:14:07.880Z,15.70
2018-10-03T03:16:36.773Z,15.70
2018-10-03T03:19:05.586Z,15.70
2018-10-03T03:21:36.464Z,15.70
2018-10-03T03:24:04.687Z,15.70
2018-10-03T03:26:32.951Z,15.70
2018-10-03T03:29:01.178Z,15.70
2018-10-03T03:31:29.815Z,15.60
2018-10-03T03:33:58.062Z,15.60
2018-10-03T03:36:26.336Z,15.60
2018-10-03T03:38:54.694Z,15.60
2018-10-03T03:41:22.974Z,15.60
2018-10-03T03:43:51.224Z,15.60
2018-10-03T03:46:20.412Z,15.50
2018-10-03T03:48:48.674Z,15.50
2018-10-03T03:51:16.964Z,15.40
2018-10-03T03:53:45.184Z,15.40
2018-10-03T03:56:13.443Z,15.40
2018-10-03T03:58:41.665Z,15.40
2018-10-03T04:01:09.899Z,15.40
2018-10-03T04:03:38.141Z,15.40
2018-10-03T04:06:06.448Z,15.30
2018-10-03T04:08:34.690Z,15.30
2018-10-03T04:11:02.895Z,15.30
2018-10-03T04:13:31.175Z,15.30
2018-10-03T04:15:59.451Z,15.20
2018-10-03T04:18:27.694Z,15.20
2018-10-03T04:20:56.062Z,16.30
2018-10-03T04:25:58.940Z,15.10
2018-10-03T04:28:27.139Z,15.10
2018-10-03T04:30:55.359Z,15.00
2018-10-03T04:33:23.611Z,15.00
2018-10-03T04:35:51.835Z,15.00
2018-10-03T04:38:20.130Z,15.00
2018-10-03T04:40:48.338Z,15.00
2018-10-03T04:43:16.586Z,15.00
2018-10-03T04:45:44.854Z,14.90
2018-10-03T04:48:13.292Z,14.90
2018-10-03T04:50:41.609Z,14.90
2018-10-03T04:53:09.857Z,14.80
2018-10-03T04:55:38.103Z,14.80
2018-10-03T04:58:06.375Z,14.80
2018-10-03T05:00:34.646Z,14.80
2018-10-03T05:03:02.875Z,14.80
2018-10-03T05:05:31.099Z,14.80
2018-10-03T05:07:59.307Z,14.70
2018-10-03T05:10:27.529Z,14.70
2018-10-03T05:12:55.738Z,14.70
2018-10-03T05:15:24.424Z,14.60
2018-10-03T05:17:52.666Z,14.60
2018-10-03T05:20:20.908Z,14.60
2018-10-03T05:22:49.106Z,14.60
2018-10-03T05:25:17.391Z,14.60
2018-10-03T05:27:45.644Z,14.50
2018-10-03T05:30:13.921Z,14.50
2018-10-03T05:32:42.150Z,14.50
2018-10-03T05:35:10.369Z,14.50
2018-10-03T05:37:38.625Z,14.50
2018-10-03T05:40:06.869Z,14.50
2018-10-03T05:42:35.079Z,14.50
2018-10-03T05:45:03.324Z,14.50
2018-10-03T05:47:31.579Z,14.40
2018-10-03T05:49:59.805Z,14.50
2018-10-03T05:52:28.019Z,14.50
2018-10-03T05:54:56.255Z,14.50
2018-10-03T05:57:24.471Z,14.50
2018-10-03T05:59:53.372Z,14.60
2018-10-03T06:02:21.609Z,14.60
2018-10-03T06:04:49.851Z,14.70
2018-10-03T06:07:18.152Z,14.70
2018-10-03T06:09:46.648Z,14.70
2018-10-03T06:12:14.945Z,14.80
2018-10-03T06:14:43.106Z,14.80
2018-10-03T06:17:11.370Z,14.90
2018-10-03T06:19:39.615Z,15.00
2018-10-03T06:22:07.833Z,15.10
2018-10-03T06:24:36.106Z,15.20
2018-10-03T06:27:04.351Z,15.20
2018-10-03T06:29:32.577Z,15.20
2018-10-03T06:32:00.801Z,15.20
2018-10-03T06:34:29.040Z,15.10
2018-10-03T06:36:57.268Z,15.20
2018-10-03T06:39:25.547Z,15.20
2018-10-03T06:41:53.663Z,15.20
2018-10-03T06:44:21.919Z,15.20
2018-10-03T06:46:50.167Z,15.20
2018-10-03T06:49:18.554Z,15.10
2018-10-03T06:51:46.848Z,15.10
2018-10-03T06:54:15.106Z,15.10
2018-10-03T06:56:43.337Z,15.20
2018-10-03T06:59:11.619Z,15.20
2018-10-03T07:01:39.852Z,15.10
2018-10-03T07:04:08.081Z,15.10
2018-10-03T07:06:36.906Z,15.00
2018-10-03T07:09:06.941Z,15.10
2018-10-03T07:11:35.264Z,15.20
2018-10-03T07:14:03.595Z,15.30
2018-10-03T07:16:31.796Z,15.30
2018-10-03T07:19:00.051Z,15.40
2018-10-03T07:21:28.261Z,15.40
2018-10-03T07:23:56.470Z,15.40
2018-10-03T07:26:24.664Z,15.40
2018-10-03T07:28:52.901Z,15.50
2018-10-03T07:31:21.126Z,15.50
2018-10-03T07:33:49.376Z,15.50
2018-10-03T07:36:17.631Z,15.60
2018-10-03T07:38:45.862Z,15.50
2018-10-03T07:41:14.082Z,15.60
2018-10-03T07:43:42.341Z,15.60
2018-10-03T07:46:10.575Z,15.70
2018-10-03T07:48:38.833Z,15.80
2018-10-03T07:51:07.145Z,16.00
2018-10-03T07:53:35.400Z,16.10
2018-10-03T07:56:03.616Z,16.20
2018-10-03T07:58:31.865Z,16.20
2018-10-03T08:01:00.066Z,16.30
2018-10-03T08:03:28.279Z,16.30
2018-10-03T08:05:56.537Z,16.40
2018-10-03T08:08:24.796Z,16.30
2018-10-03T08:10:53.060Z,16.30
2018-10-03T08:13:21.322Z,16.30
2018-10-03T08:15:49.592Z,16.30
2018-10-03T08:18:17.993Z,16.30
2018-10-03T08:20:46.305Z,16.20
2018-10-03T08:23:15.113Z,16.10
2018-10-03T08:25:43.364Z,16.10
2018-10-03T08:28:11.552Z,16.20
2018-10-03T08:30:39.799Z,16.20
2018-10-03T08:33:08.076Z,16.30
2018-10-03T08:35:36.362Z,16.30
2018-10-03T08:38:04.646Z,16.50
2018-10-03T08:40:32.923Z,16.40
2018-10-03T08:43:01.280Z,16.50
2018-10-03T08:45:29.579Z,16.50
2018-10-03T08:47:57.782Z,16.60
2018-10-03T08:50:26.522Z,16.70
2018-10-03T08:52:57.661Z,16.80
2018-10-03T08:55:25.862Z,16.80
2018-10-03T08:57:54.272Z,16.80
2018-10-03T09:00:22.445Z,16.90
2018-10-03T09:02:50.682Z,16.90
2018-10-03T09:05:18.910Z,17.20
2018-10-03T09:07:47.146Z,17.20
2018-10-03T09:10:15.405Z,17.10
2018-10-03T09:12:43.630Z,17.20
2018-10-03T09:15:12.203Z,17.20
2018-10-03T09:17:40.488Z,17.30
2018-10-03T09:20:08.755Z,17.40
2018-10-03T09:22:36.968Z,17.50
2018-10-03T09:25:05.287Z,17.40
2018-10-03T09:27:33.683Z,17.40
2018-10-03T09:30:01.902Z,17.40
2018-10-03T09:32:30.483Z,17.40
2018-10-03T09:34:58.790Z,17.50
2018-10-03T09:37:27.005Z,17.70
2018-10-03T09:39:55.230Z,17.90
2018-10-03T09:42:23.475Z,17.80
2018-10-03T09:44:51.730Z,17.80
2018-10-03T09:47:19.999Z,17.70
2018-10-03T09:49:48.218Z,17.80
2018-10-03T09:52:16.443Z,17.80
2018-10-03T09:54:44.667Z,17.90
2018-10-03T09:57:12.930Z,18.10
2018-10-03T09:59:41.172Z,18.00
2018-10-03T10:02:09.387Z,17.90
2018-10-03T10:04:37.586Z,17.80
2018-10-03T10:07:06.334Z,17.70
2018-10-03T10:09:34.653Z,17.60
2018-10-03T10:12:02.882Z,17.70
2018-10-03T10:14:31.158Z,17.80
2018-10-03T10:16:59.439Z,17.90
2018-10-03T10:19:27.724Z,17.90
2018-10-03T10:21:56.530Z,17.80
2018-10-03T10:24:25.082Z,17.60
2018-10-03T10:26:53.272Z,17.50
2018-10-03T10:29:21.830Z,17.30
2018-10-03T10:31:50.029Z,17.40
2018-10-03T10:34:18.303Z,17.60
2018-10-03T10:36:46.519Z,17.60
2018-10-03T10:39:14.743Z,17.60
2018-10-03T10:41:43.021Z,17.70
2018-10-03T10:44:11.246Z,17.80
2018-10-03T10:46:39.526Z,17.70
2018-10-03T10:49:08.152Z,17.70
2018-10-03T10:51:36.445Z,17.50
2018-10-03T10:54:04.635Z,17.40
2018-10-03T10:56:32.851Z,17.30
2018-10-03T10:59:01.092Z,17.20
2018-10-03T11:01:29.664Z,17.30
2018-10-03T11:03:57.867Z,17.50
2018-10-03T11:06:26.155Z,17.60
2018-10-03T11:08:54.362Z,17.70
2018-10-03T11:11:22.590Z,17.90
2018-10-03T11:13:50.829Z,18.00
2018-10-03T11:16:19.136Z,18.10
2018-10-03T11:18:47.449Z,18.00
2018-10-03T11:21:15.794Z,17.90
2018-10-03T11:23:44.148Z,17.70
2018-10-03T11:26:12.243Z,17.50
2018-10-03T11:28:40.454Z,17.40
2018-10-03T11:31:08.694Z,17.40
2018-10-03T11:33:36.918Z,17.40
2018-10-03T11:36:05.166Z,17.30
2018-10-03T11:38:33.378Z,17.40
2018-10-03T11:41:01.618Z,17.60
2018-10-03T11:43:29.897Z,17.80
2018-10-03T11:45:58.266Z,18.00
2018-10-03T11:48:26.537Z,18.30
2018-10-03T11:50:54.733Z,18.50
2018-10-03T11:53:22.938Z,18.40
2018-10-03T11:55:51.142Z,18.20
2018-10-03T11:58:19.398Z,18.00
2018-10-03T12:00:47.634Z,17.80
2018-10-03T12:03:15.983Z,17.80
2018-10-03T12:05:44.075Z,17.70
2018-10-03T12:08:12.294Z,17.80
2018-10-03T12:10:40.867Z,17.80
2018-10-03T12:13:09.116Z,17.90
2018-10-03T12:15:37.345Z,18.00
2018-10-03T12:18:05.568Z,18.00
2018-10-03T12:20:33.804Z,18.00
2018-10-03T12:23:02.189Z,18.10
2018-10-03T12:25:30.558Z,18.10
2018-10-03T12:27:58.811Z,18.10
2018-10-03T12:30:27.112Z,18.10
2018-10-03T12:32:55.433Z,18.00
2018-10-03T12:35:28.978Z,18.10
2018-10-03T12:37:57.450Z,18.10
2018-10-03T12:40:25.723Z,18.20
2018-10-03T12:42:54.067Z,18.30
2018-10-03T12:45:22.511Z,18.40
2018-10-03T12:47:51.906Z,18.40
2018-10-03T12:50:20.201Z,18.60
2018-10-03T12:52:48.758Z,18.70
2018-10-03T12:55:17.130Z,18.60
2018-10-03T12:57:46.065Z,18.80
2018-10-03T13:00:15.403Z,18.80
2018-10-03T13:02:43.726Z,18.90
2018-10-03T13:05:12.006Z,19.00
2018-10-03T13:07:41.124Z,19.10
2018-10-03T13:10:09.409Z,19.20
2018-10-03T13:12:37.679Z,19.10
2018-10-03T13:15:06.101Z,18.90
2018-10-03T13:17:34.661Z,18.80
2018-10-03T13:20:02.918Z,18.70
2018-10-03T13:22:31.326Z,18.70
2018-10-03T13:24:59.577Z,18.70
2018-10-03T13:27:27.938Z,18.80
2018-10-03T13:29:57.013Z,18.80
2018-10-03T13:32:25.279Z,18.90
2018-10-03T13:34:53.660Z,19.00
2018-10-03T13:37:22.090Z,19.00
2018-10-03T13:40:15.122Z,19.00
2018-10-03T13:42:44.666Z,19.00
2018-10-03T13:45:14.831Z,20.90
2018-10-03T13:47:43.825Z,18.90
2018-10-03T13:50:13.114Z,18.70
2018-10-03T13:52:41.897Z,18.70
2018-10-03T13:55:10.163Z,18.80
2018-10-03T13:57:38.903Z,18.80
2018-10-03T14:00:07.829Z,18.80
2018-10-03T14:02:36.060Z,18.80
2018-10-03T14:05:04.398Z,18.90
2018-10-03T14:07:32.699Z,18.90
2018-10-03T14:10:00.974Z,18.90
2018-10-03T14:12:29.223Z,18.80
2018-10-03T14:14:58.670Z,18.90
2018-10-03T14:17:26.976Z,18.90
2018-10-03T14:19:55.257Z,18.80
2018-10-03T14:22:23.467Z,18.90
2018-10-03T14:24:51.707Z,18.80
2018-10-03T14:27:19.987Z,18.70
2018-10-03T14:29:48.203Z,18.80
2018-10-03T14:32:16.448Z,18.70
2018-10-03T14:34:44.658Z,18.70
2018-10-03T14:37:13.186Z,18.60
2018-10-03T14:39:41.449Z,18.50
2018-10-03T14:42:09.674Z,18.30
2018-10-03T14:44:37.895Z,18.10
2018-10-03T14:47:06.369Z,18.10
2018-10-03T14:49:34.609Z,18.10
2018-10-03T14:52:02.845Z,18.10
2018-10-03T14:54:31.066Z,18.10
2018-10-03T14:56:59.322Z,18.10
2018-10-03T14:59:27.525Z,18.30
2018-10-03T15:01:57.555Z,18.30
2018-10-03T15:04:26.004Z,18.30
2018-10-03T15:06:54.264Z,18.20
2018-10-03T15:09:22.626Z,18.30
2018-10-03T15:11:50.910Z,18.40
2018-10-03T15:14:19.173Z,18.40
2018-10-03T15:16:47.386Z,18.30
2018-10-03T15:19:15.838Z,18.20
2018-10-03T15:21:44.084Z,18.20
2018-10-03T15:24:12.339Z,18.30
2018-10-03T15:26:40.596Z,18.30
2018-10-03T15:29:08.818Z,18.30
2018-10-03T15:31:37.289Z,18.30
2018-10-03T15:34:05.520Z,18.30
2018-10-03T15:36:34.504Z,18.30
2018-10-03T15:39:02.831Z,18.20
2018-10-03T15:41:31.111Z,18.10
2018-10-03T15:43:59.365Z,18.10
2018-10-03T15:46:27.720Z,18.10
2018-10-03T15:48:56.039Z,18.10
2018-10-03T15:51:24.294Z,18.00
2018-10-03T15:53:52.554Z,18.00
2018-10-03T15:56:20.798Z,17.90
2018-10-03T15:58:49.179Z,17.90
2018-10-03T16:01:17.399Z,17.90
2018-10-03T16:03:45.626Z,17.90
2018-10-03T16:06:13.854Z,17.90
2018-10-03T16:08:42.196Z,17.90
2018-10-03T16:11:10.443Z,17.90
2018-10-03T16:13:38.702Z,17.80
2018-10-03T16:16:06.939Z,17.80
2018-10-03T16:18:35.205Z,17.90
2018-10-03T16:21:03.454Z,17.90
2018-10-03T16:23:32.187Z,17.90
2018-10-03T16:26:00.425Z,18.00
2018-10-03T16:28:28.683Z,18.00
2018-10-03T16:30:57.024Z,17.90
2018-10-03T16:33:29.825Z,18.00
2018-10-03T16:35:58.081Z,18.00
2018-10-03T16:38:26.349Z,18.00
2018-10-03T16:40:54.591Z,18.00
2018-10-03T16:43:22.804Z,18.00
2018-10-03T16:45:51.330Z,18.00
2018-10-03T16:48:19.582Z,17.90
2018-10-03T16:50:47.827Z,17.90
2018-10-03T16:53:16.158Z,17.90
2018-10-03T16:55:44.391Z,17.90
2018-10-03T16:58:12.642Z,17.80
2018-10-03T17:00:41.015Z,17.70
2018-10-03T17:03:11.203Z,17.70
2018-10-03T17:05:39.474Z,17.70
2018-10-03T17:08:07.741Z,17.60
2018-10-03T17:10:36.149Z,17.50
2018-10-03T17:13:05.558Z,17.50
2018-10-03T17:15:33.867Z,17.50
2018-10-03T17:18:02.101Z,17.50
2018-10-03T17:20:30.387Z,17.50
2018-10-03T17:22:58.700Z,17.40
2018-10-03T17:25:27.384Z,17.40
2018-10-03T17:27:55.630Z,17.30
2018-10-03T17:30:24.082Z,17.30
2018-10-03T17:32:52.484Z,17.30
2018-10-03T17:35:20.855Z,17.20
2018-10-03T17:37:50.155Z,17.20
2018-10-03T17:40:18.395Z,17.10
2018-10-03T17:42:46.646Z,17.10
2018-10-03T17:45:14.939Z,17.00
2018-10-03T17:47:45.930Z,17.00
2018-10-03T17:50:14.277Z,17.00
2018-10-03T17:52:42.575Z,16.90
2018-10-03T17:55:10.941Z,16.90
2018-10-03T17:57:39.207Z,16.90
2018-10-03T18:00:08.012Z,16.90
2018-10-03T18:02:36.570Z,16.90
2018-10-03T18:05:05.085Z,16.80
2018-10-03T18:07:33.380Z,16.80
2018-10-03T18:10:01.714Z,16.80
2018-10-03T18:12:29.941Z,16.70
2018-10-03T18:14:58.487Z,16.70
2018-10-03T18:17:26.828Z,16.70
2018-10-03T18:19:55.350Z,16.60
2018-10-03T18:22:23.624Z,16.60
2018-10-03T18:24:51.876Z,16.50
2018-10-03T18:27:20.458Z,16.50
2018-10-03T18:29:48.726Z,16.50
2018-10-03T18:32:17.034Z,16.40
2018-10-03T18:34:45.286Z,16.40
2018-10-03T18:37:13.539Z,16.40
2018-10-03T18:39:42.023Z,16.30
2018-10-03T18:42:10.258Z,16.30
2018-10-03T18:44:38.482Z,16.20
2018-10-03T18:47:06.731Z,16.20
2018-10-03T18:49:34.994Z,16.20
2018-10-03T18:52:04.021Z,16.10
2018-10-03T18:54:32.220Z,16.10
2018-10-03T18:57:00.750Z,16.10
2018-10-03T18:59:28.970Z,16.10
2018-10-03T19:01:57.215Z,16.00
2018-10-03T19:04:25.860Z,16.00
2018-10-03T19:06:54.087Z,16.00
2018-10-03T19:09:22.335Z,16.00
2018-10-03T19:11:50.598Z,15.90
2018-10-03T19:14:18.794Z,15.90
2018-10-03T19:16:48.088Z,15.90
2018-10-03T19:19:16.368Z,15.90
2018-10-03T19:21:45.074Z,15.90
2018-10-03T19:24:13.310Z,15.90
2018-10-03T19:26:41.602Z,15.90
2018-10-03T19:29:10.001Z,15.80
2018-10-03T19:31:38.236Z,15.80
2018-10-03T19:34:06.450Z,15.70
2018-10-03T19:36:34.805Z,15.70
2018-10-03T19:39:03.994Z,15.70
2018-10-03T19:41:32.231Z,15.60
2018-10-03T19:44:00.479Z,15.60
2018-10-03T19:46:28.675Z,15.60
2018-10-03T19:48:56.938Z,15.60
2018-10-03T19:51:25.149Z,15.60
2018-10-03T19:53:53.378Z,15.50
2018-10-03T19:56:21.588Z,15.50
2018-10-03T19:58:49.786Z,15.50
2018-10-03T20:01:18.082Z,15.50
2018-10-03T20:03:46.386Z,15.50
2018-10-03T20:06:14.572Z,15.40
2018-10-03T20:08:42.789Z,15.40
2018-10-03T20:11:10.990Z,15.40
2018-10-03T20:13:39.314Z,15.40
2018-10-03T20:16:08.459Z,15.40
2018-10-03T20:18:38.084Z,15.30
2018-10-03T20:21:06.639Z,15.30
2018-10-03T20:23:34.862Z,15.30
2018-10-03T20:26:03.244Z,15.30
2018-10-03T20:28:31.543Z,15.30
2018-10-03T20:30:59.827Z,15.20
2018-10-03T20:33:28.138Z,15.20
2018-10-03T20:35:56.469Z,15.10
2018-10-03T20:38:24.710Z,15.20
2018-10-03T20:40:52.938Z,15.20
2018-10-03T20:43:21.541Z,15.20
2018-10-03T20:45:49.736Z,15.30
2018-10-03T20:48:17.961Z,15.40
2018-10-03T20:50:46.166Z,15.30
2018-10-03T20:53:14.357Z,15.30
2018-10-03T20:55:42.586Z,15.30
2018-10-03T20:58:12.268Z,15.20
2018-10-03T21:00:40.718Z,15.20
2018-10-03T21:03:09.862Z,15.20
2018-10-03T21:05:38.142Z,15.20
2018-10-03T21:08:06.815Z,15.10
2018-10-03T21:10:35.054Z,15.10
2018-10-03T21:13:04.122Z,15.00
2018-10-03T21:15:32.361Z,14.90
2018-10-03T21:18:00.667Z,14.90
2018-10-03T21:20:28.955Z,14.80
2018-10-03T21:22:57.552Z,14.80
2018-10-03T21:25:26.866Z,14.80
2018-10-03T21:27:55.423Z,14.70
2018-10-03T21:30:23.660Z,14.70
2018-10-03T21:32:52.930Z,14.60
2018-10-03T21:35:22.516Z,14.60
2018-10-03T21:37:50.776Z,14.60
2018-10-03T21:40:18.991Z,14.60
2018-10-03T21:42:47.222Z,14.50
2018-10-03T21:45:15.442Z,14.50
2018-10-03T21:47:44.095Z,14.50
2018-10-03T21:50:12.302Z,14.50
2018-10-03T21:52:40.542Z,14.40
2018-10-03T21:55:08.813Z,14.40
2018-10-03T21:57:37.054Z,14.40
2018-10-03T22:00:06.730Z,14.40
2018-10-03T22:02:35.383Z,14.40
2018-10-03T22:05:06.473Z,14.30
2018-10-03T22:07:35.020Z,14.30
2018-10-03T22:10:03.446Z,14.20
2018-10-03T22:12:31.765Z,14.20
2018-10-03T22:15:00.045Z,14.20
2018-10-03T22:17:28.260Z,14.10
2018-10-03T22:19:57.194Z,14.10
2018-10-03T22:22:25.644Z,14.10
2018-10-03T22:24:53.846Z,14.10
2018-10-03T22:27:22.102Z,14.10
2018-10-03T22:29:50.354Z,14.10
2018-10-03T22:32:18.570Z,14.00
2018-10-03T22:34:46.891Z,14.00
2018-10-03T22:37:15.155Z,14.00
2018-10-03T22:39:44.091Z,14.00
2018-10-03T22:42:12.592Z,14.00
2018-10-03T22:44:40.787Z,14.10
2018-10-03T22:47:09.378Z,14.00
2018-10-03T22:49:37.614Z,14.10
2018-10-03T22:52:05.890Z,14.10
2018-10-03T22:54:34.386Z,14.10
2018-10-03T22:57:02.817Z,14.10
2018-10-03T22:59:31.260Z,14.00
2018-10-03T23:01:59.543Z,14.10
2018-10-03T23:04:28.192Z,14.10
2018-10-03T23:06:56.638Z,14.10
2018-10-03T23:09:24.873Z,14.00
2018-10-03T23:11:53.102Z,14.00
2018-10-03T23:14:21.761Z,14.00
2018-10-03T23:16:50.027Z,14.00
2018-10-03T23:19:18.241Z,13.90
2018-10-03T23:21:46.607Z,13.90
2018-10-03T23:24:14.902Z,13.90
2018-10-03T23:26:43.154Z,13.90
2018-10-03T23:29:11.374Z,13.90
2018-10-03T23:31:39.985Z,13.90
2018-10-03T23:34:08.780Z,13.80
2018-10-03T23:36:37.058Z,13.80
2018-10-03T23:39:08.067Z,13.80
2018-10-03T23:41:36.337Z,13.80
2018-10-03T23:44:04.591Z,13.80
2018-10-03T23:46:32.818Z,13.80
2018-10-03T23:49:01.088Z,13.70
2018-10-03T23:51:29.323Z,13.70
2018-10-03T23:53:57.922Z,13.70
2018-10-03T23:56:26.319Z,13.70
2018-10-03T23:58:54.572Z,13.60
